Latest Weather Observations for Bega

IDN60801

Issued at 10:52 am EST Tuesday 26 May 2020 (issued every 10 minutes, with the page automatically refreshed every 10 minutes)

About weather observations | Map of weather stations | Latest weather observations for NSW | Other Formats
Station Details ID: 069139 Name: BEGA AWS Lat: -36.67 Lon: 149.82 Height: 41.0 m
Data from the previous 72 hours. | See also: Recent months at Bega
Date/Time
EST
Temp
°C
App
Temp
°C
Dew
Point
°C
Rel
Hum
%
Delta-T
°C
Wind Press
QNH
hPa
Press
MSL
hPa
Rain since
9am
mm
Dir  Spd
km/h
Gust
km/h
Spd
kts
Gust
kts
26/10:30am 15.7 13.4 10.5 71 2.8 WSW 13 20 7 11 1027.1 1027.1 0.0
26/10:00am 15.4 13.5 10.4 72 2.6 WSW 11 17 6 9 1027.1 1027.1 0.0
26/09:30am 13.7 14.1 11.4 86 1.2 CALM 0 0 0 0 1027.1 1027.1 0.0
26/09:00am 13.3 11.3 10.1 81 1.6 WSW 11 17 6 9 1027.1 1027.1 0.0
26/08:30am 12.5 11.0 10.4 87 1.1 NE 9 13 5 7 1026.9 1026.9 0.0
26/08:00am 13.5 12.0 9.2 75 2.2 S 7 11 4 6 1026.7 1026.7 0.0
26/07:30am 13.4 11.1 8.9 74 2.3 WSW 11 15 6 8 1026.3 1026.3 0.0
26/07:00am 13.4 10.3 8.7 73 2.3 SW 15 20 8 11 1026.0 1026.0 0.0
26/06:30am 13.4 10.6 8.5 72 2.5 SW 13 19 7 10 1026.0 1026.0 0.0
26/06:00am 13.5 10.2 8.1 70 2.7 SW 15 19 8 10 1025.8 1025.8 0.0
26/05:30am 13.6 10.3 8.2 70 2.7 SW 15 20 8 11 1025.5 1025.5 0.0
26/05:00am 13.4 9.8 8.3 71 2.5 SW 17 20 9 11 1025.1 1025.1 0.0
26/04:30am 13.4 10.2 8.3 71 2.5 SW 15 19 8 10 1025.1 1025.1 0.0
26/04:00am 13.5 10.6 8.1 70 2.7 SW 13 20 7 11 1025.2 1025.2 0.0
26/03:30am 13.7 9.7 8.3 70 2.7 SW 19 28 10 15 1025.1 1025.1 0.0
26/03:00am 13.6 9.9 8.0 69 2.8 SW 17 20 9 11 1025.4 1025.4 0.0
26/02:30am 13.7 10.4 7.9 68 2.9 SW 15 22 8 12 1025.4 1025.4 0.0
26/02:00am 13.7 10.0 7.9 68 2.9 SW 17 24 9 13 1025.4 1025.4 0.0
26/01:30am 13.7 9.4 7.9 68 2.9 SW 20 26 11 14 1025.4 1025.4 0.0
26/01:00am 13.7 9.6 7.9 68 2.9 SW 19 26 10 14 1025.7 1025.7 0.0
26/12:30am 13.6 9.4 7.6 67 3.0 WSW 19 28 10 15 1025.6 1025.6 0.0
26/12:00am 13.7 9.4 7.7 67 2.9 WSW 20 28 11 15 1025.6 1025.6 0.0
 
Date/Time
EST
Temp
°C
App
Temp
°C
Dew
Point
°C
Rel
Hum
%
Delta-T
°C
Wind Press
QNH
hPa
Press
MSL
hPa
Rain since
9am
mm
Dir  Spd
km/h
Gust
km/h
Spd
kts
Gust
kts
25/11:30pm 13.7 9.6 7.7 67 3.0 WSW 19 26 10 14 1025.6 1025.6 0.0
25/11:00pm 13.6 9.9 7.8 68 2.8 SW 17 24 9 13 1025.6 1025.6 0.0
25/10:30pm 13.6 10.6 7.8 68 2.9 SW 13 19 7 10 1025.5 1025.5 0.0
25/10:00pm 13.6 9.5 8.0 69 2.8 SW 19 24 10 13 1025.4 1025.4 0.0
25/09:30pm 13.5 9.5 8.1 70 2.7 SW 19 26 10 14 1025.5 1025.5 0.0
25/09:00pm 13.6 9.3 8.0 69 2.8 SW 20 32 11 17 1025.4 1025.4 0.0
25/08:30pm 13.6 9.0 8.0 69 2.8 SW 22 32 12 17 1025.2 1025.2 0.0
25/08:00pm 13.6 9.3 7.8 68 2.8 SW 20 28 11 15 1025.1 1025.1 0.0
25/07:30pm 13.6 9.5 8.0 69 2.8 SW 19 24 10 13 1024.8 1024.8 0.0
25/07:00pm 13.3 8.7 8.2 71 2.5 SW 22 28 12 15 1024.5 1024.5 0.0
25/06:30pm 13.3 9.1 8.4 72 2.4 SW 20 30 11 16 1024.0 1024.0 0.0
25/06:00pm 13.2 9.2 8.3 72 2.4 SW 19 24 10 13 1023.9 1023.9 0.0
25/05:30pm 13.3 9.4 8.6 73 2.4 SW 19 26 10 14 1023.4 1023.4 0.0
25/05:00pm 13.7 9.8 8.7 72 2.5 SW 19 24 10 13 1023.1 1023.1 0.0
25/04:30pm 14.2 10.7 8.8 70 2.7 SW 17 24 9 13 1023.1 1023.1 0.0
25/04:00pm 14.3 10.4 8.7 69 2.8 SW 19 24 10 13 1023.0 1023.0 0.0
25/03:30pm 14.5 10.4 8.5 67 3.0 SW 20 32 11 17 1022.8 1022.8 0.0
25/03:00pm 14.3 9.9 9.1 71 2.6 SSW 22 32 12 17 1022.9 1022.9 0.0
25/02:30pm 14.5 11.2 9.7 73 2.5 SSW 17 22 9 12 1022.7 1022.7 0.0
25/02:00pm 14.5 9.4 9.3 71 2.7 SSW 26 39 14 21 1022.5 1022.5 0.0
25/01:30pm 14.1 9.9 9.7 75 2.3 SW 22 32 12 17 1022.4 1022.4 0.0
25/01:00pm 14.4 8.9 9.0 70 2.7 S 28 39 15 21 1022.4 1022.4 0.0
25/12:30pm 14.4 9.2 9.0 70 2.8 SW 26 37 14 20 1022.5 1022.5 0.0
25/12:00pm 14.6 10.5 8.8 68 2.9 SW 20 28 11 15 1022.6 1022.6 0.0
25/11:30am 14.6 10.5 8.5 67 3.1 SW 20 28 11 15 1022.8 1022.8 0.0
25/11:00am 14.5 10.0 8.5 67 3.0 SW 22 32 12 17 1022.9 1022.9 0.0
25/10:30am 13.9 7.7 7.7 66 3.1 SW 30 43 16 23 1022.9 1022.9 0.0
25/10:00am 14.0 8.9 7.5 65 3.2 SW 24 37 13 20 1022.9 1022.9 0.0
25/09:30am 13.9 7.9 7.2 64 3.3 SW 28 39 15 21 1022.6 1022.6 0.0
25/09:00am 13.6 8.8 7.2 65 3.1 SW 22 35 12 19 1022.3 1022.3 0.0
25/08:30am 13.3 8.1 7.3 67 2.9 SW 24 35 13 19 1022.1 1022.1 0.0
25/08:00am 13.0 7.9 7.5 69 2.7 SW 24 37 13 20 1022.0 1022.0 0.0
25/07:30am 12.6 8.4 8.1 74 2.2 SW 20 28 11 15 1021.8 1021.8 0.0
25/07:00am 12.2 8.0 8.3 77 1.9 SW 20 28 11 15 1021.6 1021.6 0.0
25/06:30am 12.1 6.4 8.2 77 1.9 SW 28 33 15 18 1021.1 1021.1 0.0
25/06:00am 12.7 7.6 7.8 72 2.4 SW 24 37 13 20 1020.5 1020.5 0.0
25/05:30am 12.8 7.3 7.5 70 2.6 SW 26 35 14 19 1020.2 1020.2 0.0
25/05:00am 12.8 7.7 7.5 70 2.6 SW 24 35 13 19 1020.0 1020.0 0.0
25/04:30am 12.7 7.2 7.6 71 2.5 SW 26 35 14 19 1019.8 1019.8 0.0
25/04:00am 12.5 7.4 7.8 73 2.3 SW 24 33 13 18 1019.9 1019.9 0.0
25/03:30am 12.6 6.7 7.5 71 2.5 SW 28 39 15 21 1019.8 1019.8 0.0
25/03:00am 12.3 7.5 7.4 72 2.4 SW 22 32 12 17 1019.8 1019.8 0.0
25/02:30am 12.4 7.6 7.5 72 2.4 SW 22 35 12 19 1019.8 1019.8 0.0
25/02:00am 12.1 7.4 7.8 75 2.1 SW 22 32 12 17 1019.9 1019.9 0.0
25/01:30am 12.0 6.2 7.9 76 2.0 SW 28 39 15 21 1019.7 1019.7 0.0
25/01:00am 12.4 7.0 8.1 75 2.1 SW 26 35 14 19 1019.8 1019.8 0.0
25/12:30am 12.3 7.3 8.0 75 2.1 SW 24 33 13 18 1019.7 1019.7 0.0
25/12:00am 11.9 7.9 8.4 79 1.7 SW 19 30 10 16 1019.6 1019.6 0.0
 
Date/Time
EST
Temp
°C
App
Temp
°C
Dew
Point
°C
Rel
Hum
%
Delta-T
°C
Wind Press
QNH
hPa
Press
MSL
hPa
Rain since
9am
mm
Dir  Spd
km/h
Gust
km/h
Spd
kts
Gust
kts
24/11:30pm 12.2 8.0 8.3 77 1.9 SW 20 33 11 18 1019.8 1019.8 0.0
24/11:00pm 12.4 8.3 7.9 74 2.2 SW 19 32 10 17 1019.7 1019.7 0.0
24/10:30pm 12.8 8.7 7.7 71 2.5 SW 19 30 10 16 1019.6 1019.6 0.0
24/10:00pm 13.0 8.2 7.5 69 2.7 SW 22 33 12 18 1019.4 1019.4 0.0
24/09:30pm 13.0 8.6 7.2 68 2.8 SW 20 28 11 15 1019.3 1019.3 0.0
24/09:00pm 13.1 8.8 7.1 67 2.9 SW 19 26 10 14 1019.2 1019.2 0.0
24/08:30pm 12.7 8.9 7.4 70 2.6 SW 17 24 9 13 1019.0 1019.0 0.0
24/08:00pm 12.4 8.0 7.5 72 2.4 SW 20 30 11 16 1019.0 1019.0 0.0
24/07:30pm 12.6 8.5 7.7 72 2.4 SSW 19 26 10 14 1018.6 1018.6 0.0
24/07:00pm 12.5 7.9 8.2 75 2.1 SW 22 32 12 17 1018.4 1018.4 0.0
24/06:30pm 12.1 7.2 8.4 78 1.8 SW 24 33 13 18 1018.0 1018.0 0.0
24/06:00pm 12.2 7.4 8.7 79 1.7 SW 24 35 13 19 1017.9 1017.9 0.0
24/05:30pm 13.0 8.0 7.9 71 2.5 SW 24 35 13 19 1017.7 1017.7 0.0
24/05:00pm 13.5 9.3 7.3 66 3.0 SSW 19 24 10 13 1017.2 1017.2 0.0
24/04:30pm 13.8 9.4 7.3 65 3.2 SSW 20 28 11 15 1016.8 1016.8 0.0
24/04:00pm 14.3 8.6 6.9 61 3.6 SSW 26 37 14 20 1016.6 1016.6 0.0
24/03:30pm 15.0 8.8 6.3 56 4.2 SSW 28 41 15 22 1016.2 1016.2 0.0
24/03:00pm 15.2 9.3 6.0 54 4.4 SW 26 37 14 20 1016.0 1016.0 0.0
24/02:35pm 14.7 7.8 7.3 61 3.6 SW 33 52 18 28 1016.2 1016.2 0.0
24/02:30pm 14.4 7.1 7.0 61 3.6 SW 35 52 19 28 1016.1 1016.1 0.0
24/02:20pm 14.2 7.5 7.5 64 3.3 SW 32 50 17 27 1016.2 1016.2 0.0
24/02:00pm 15.0 7.7 7.1 59 3.9 SW 35 50 19 27 1016.0 1016.0 0.0
24/01:35pm 15.1 8.1 6.9 58 4.0 SSW 33 52 18 28 1016.1 1016.1 0.0
24/01:30pm 14.7 6.9 6.8 59 3.9 SW 37 52 20 28 1016.0 1016.0 0.0
24/01:11pm 16.6 9.6 6.1 50 5.1 SW 32 54 17 29 1015.8 1015.8 0.0
24/01:00pm 16.8 9.7 5.4 47 5.5 SSW 32 46 17 25 1015.7 1015.7 0.0
24/12:30pm 16.4 9.2 6.0 50 5.1 SSW 33 52 18 28 1015.5 1015.6 0.0
24/12:20pm 16.0 9.5 6.7 54 4.6 SSW 30 50 16 27 1015.8 1015.8 0.0
24/12:00pm 15.1 7.4 6.9 58 4.0 SSW 37 54 20 29 1016.1 1016.1 0.0
24/11:46am 15.8 8.9 6.5 54 4.5 SW 32 50 17 27 1016.0 1016.0 0.0
24/11:30am 15.9 9.7 7.7 58 4.1 SW 30 41 16 22 1016.1 1016.1 0.0
24/11:00am 15.0 8.7 7.5 61 3.7 SSW 30 43 16 23 1016.5 1016.5 0.0
24/10:30am 13.9 9.6 9.5 75 2.3 SSW 22 32 12 17 1016.7 1016.7 0.0
24/10:12am 14.7 8.6 8.2 65 3.3 SW 30 48 16 26 1016.4 1016.4 0.0
24/10:00am 14.9 8.3 8.4 65 3.3 SW 33 50 18 27 1016.3 1016.3 0.0
24/09:30am 14.6 5.8 7.4 62 3.6 SW 43 63 23 34 1016.0 1016.0 0.0
24/09:07am 14.9 8.0 6.5 57 4.1 SSW 32 52 17 28 1015.9 1015.9 0.0
24/09:00am 14.6 8.8 6.4 58 4.0 SW 26 43 14 23 1015.8 1015.8 0.0
24/08:30am 13.7 8.1 7.0 64 3.3 SW 26 39 14 21 1015.8 1015.8 0.0
24/08:00am 14.0 6.0 7.5 65 3.2 SSW 39 57 21 31 1015.2 1015.3 0.0
24/07:39am 13.7 6.9 7.7 67 3.0 SW 33 54 18 29 1014.8 1014.9 0.0
24/07:30am 13.5 5.9 7.7 68 2.9 SW 37 52 20 28 1014.6 1014.7 0.0
24/07:19am 13.3 6.6 8.0 70 2.6 SW 33 52 18 28 1014.5 1014.6 0.0
24/07:00am 13.3 6.7 8.4 72 2.4 SW 33 46 18 25 1014.3 1014.4 0.0
24/06:30am 13.8 9.4 9.0 73 2.4 SW 22 32 12 17 1013.8 1013.9 0.0
24/06:00am 13.7 9.0 9.4 75 2.2 SW 24 37 13 20 1013.5 1013.5 0.0
24/05:30am 13.6 9.3 9.5 76 2.1 SW 22 33 12 18 1013.1 1013.1 0.0
24/05:00am 13.3 8.6 9.2 76 2.1 SW 24 35 13 19 1012.8 1012.8 0.0
24/04:30am 13.5 9.1 8.8 73 2.4 SW 22 30 12 16 1012.4 1012.4 0.0
24/04:00am 13.5 9.6 8.6 72 2.5 SW 19 28 10 15 1012.1 1012.1 0.0
24/03:30am 13.8 9.6 8.2 69 2.8 SW 20 28 11 15 1012.4 1012.4 0.0
24/03:00am 13.8 8.4 8.2 69 2.8 SW 26 35 14 19 1012.5 1012.5 0.0
24/02:30am 13.8 8.8 8.0 68 2.9 SW 24 33 13 18 1012.5 1012.5 0.0
24/02:00am 13.5 8.1 7.9 69 2.8 SW 26 35 14 19 1012.6 1012.6 0.0
24/01:30am 13.6 8.1 7.4 66 3.0 SW 26 39 14 21 1012.4 1012.4 0.0
24/01:00am 13.6 8.8 7.2 65 3.1 SW 22 35 12 19 1012.2 1012.2 0.0
24/12:30am 13.5 8.6 7.1 65 3.1 SW 22 35 12 19 1012.0 1012.0 0.0
24/12:00am 13.7 7.7 7.0 64 3.3 SW 28 41 15 22 1011.8 1011.8 0.0
 
Date/Time
EST
Temp
°C
App
Temp
°C
Dew
Point
°C
Rel
Hum
%
Delta-T
°C
Wind Press
QNH
hPa
Press
MSL
hPa
Rain since
9am
mm
Dir  Spd
km/h
Gust
km/h
Spd
kts
Gust
kts
23/11:30pm 13.9 8.6 7.0 63 3.4 SW 24 37 13 20 1011.8 1011.8 0.0
23/11:00pm 13.9 9.0 6.7 62 3.5 SW 22 32 12 17 1011.7 1011.7 0.0
23/10:30pm 14.0 8.7 6.8 62 3.5 SW 24 41 13 22 1011.7 1011.7 0.0
23/10:00pm 13.8 9.2 6.4 61 3.6 SW 20 30 11 16 1011.6 1011.6 0.0
23/09:30pm 13.7 8.7 6.6 62 3.4 SW 22 33 12 18 1011.5 1011.5 0.0
23/09:00pm 14.0 9.0 6.6 61 3.6 WSW 22 30 12 16 1011.3 1011.3 0.0
23/08:30pm 14.3 9.0 6.6 60 3.7 SW 24 37 13 20 1011.1 1011.1 0.0
23/08:00pm 14.4 9.1 6.7 60 3.7 SW 24 37 13 20 1010.8 1010.8 0.0
23/07:30pm 14.3 8.6 6.6 60 3.7 SW 26 41 14 22 1010.5 1010.5 0.0
23/07:14pm 14.4 7.9 6.7 60 3.7 WSW 30 50 16 27 1010.3 1010.3 0.0
23/07:00pm 14.2 8.9 6.8 61 3.6 WSW 24 35 13 19 1010.2 1010.2 0.0
23/06:30pm 14.3 8.6 6.6 60 3.7 SW 26 43 14 23 1010.0 1010.0 0.0
23/06:00pm 14.4 8.7 6.5 59 3.8 SW 26 44 14 24 1009.6 1009.6 0.0
23/05:50pm 14.5 8.4 6.6 59 3.8 SW 28 46 15 25 1009.5 1009.5 0.0
23/05:30pm 14.5 8.8 6.6 59 3.8 SW 26 37 14 20 1009.4 1009.4 0.0
23/05:00pm 14.6 8.5 6.7 59 3.8 SW 28 41 15 22 1009.1 1009.1 0.0
23/04:42pm 14.7 8.2 6.5 58 4.0 SW 30 48 16 26 1008.8 1008.8 0.0
23/04:30pm 14.7 8.6 6.5 58 4.0 SW 28 39 15 21 1008.8 1008.8 0.0
23/04:05pm 14.7 8.6 6.5 58 4.0 SW 28 46 15 25 1008.6 1008.6 0.0
23/04:00pm 14.7 8.3 6.8 59 3.9 SW 30 43 16 23 1008.6 1008.6 0.0
23/03:30pm 15.1 8.3 6.9 58 4.0 SW 32 54 17 29 1008.6 1008.6 0.0
23/03:23pm 15.1 8.3 6.7 57 4.1 SW 32 54 17 29 1008.4 1008.4 0.0
23/03:00pm 15.3 8.5 6.8 57 4.2 SW 32 43 17 23 1008.3 1008.3 0.0
23/02:33pm 15.4 8.9 6.7 56 4.3 SW 30 48 16 26 1008.2 1008.2 0.0
23/02:30pm 15.4 8.4 6.7 56 4.3 SW 33 48 18 26 1008.1 1008.1 0.0
23/02:02pm 15.7 8.9 6.7 55 4.4 SW 32 50 17 27 1008.3 1008.3 0.0
23/02:00pm 15.8 8.8 6.8 55 4.4 SW 33 50 18 27 1008.2 1008.2 0.0
23/01:33pm 16.0 7.9 7.0 55 4.4 SW 39 57 21 31 1008.2 1008.2 0.0
23/01:30pm 15.9 7.8 6.9 55 4.4 SW 39 52 21 28 1008.3 1008.3 0.0
23/01:06pm 15.7 8.3 6.7 55 4.4 SW 35 54 19 29 1008.3 1008.3 0.0
23/01:00pm 15.7 8.3 6.7 55 4.4 SW 35 50 19 27 1008.4 1008.4 0.0
23/12:32pm 15.8 9.4 6.8 55 4.4 SW 30 48 16 26 1008.6 1008.6 0.0
23/12:30pm 15.7 9.2 6.7 55 4.4 SW 30 44 16 24 1008.6 1008.6 0.0
23/12:22pm 15.8 9.0 7.1 56 4.3 SW 32 50 17 27 1008.7 1008.7 0.0
23/12:00pm 15.8 9.4 6.8 55 4.4 SW 30 46 16 25 1009.0 1009.0 0.0
23/11:50am 15.7 9.6 6.7 55 4.4 SW 28 50 15 27 1009.1 1009.1 0.0
23/11:30am 15.3 9.6 6.8 57 4.2 WSW 26 43 14 23 1009.5 1009.5 0.0
23/11:00am 15.0 8.1 6.3 56 4.2 WSW 32 48 17 26 1009.5 1009.5 0.0

Other formats

Comma delimited format used in spreadsheet applications
http://www.bom.gov.au/fwo/IDN60801/IDN60801.95931.axf

JavaScript Object Notation format (JSON) in row-major order
http://www.bom.gov.au/fwo/IDN60801/IDN60801.95931.json

Data quality

Most of these data are generated automatically and are frequently updated. Quality checks on data are not normally performed. It is possible for incorrect values to appear. Refer to information at About Latest Weather Observations and please check the disclaimer before using these data.